sensor_id;sensor_type;location;lat;lon;timestamp;P1;durP1;ratioP1;P2;durP2;ratioP2
7426;SDS011;3755;59.316;18.092;2024-01-15T00:00:43;0.43;;;0.43;;
7426;SDS011;3755;59.316;18.092;2024-01-15T00:03:11;2.37;;;0.80;;
7426;SDS011;3755;59.316;18.092;2024-01-15T00:05:38;1.47;;;0.60;;
7426;SDS011;3755;59.316;18.092;2024-01-15T00:08:05;2.57;;;0.70;;
7426;SDS011;3755;59.316;18.092;2024-01-15T00:10:34;1.57;;;0.50;;
7426;SDS011;3755;59.316;18.092;2024-01-15T00:13:01;0.50;;;0.50;;
7426;SDS011;3755;59.316;18.092;2024-01-15T00:15:28;1.80;;;0.87;;
7426;SDS011;3755;59.316;18.092;2024-01-15T00:17:55;3.23;;;0.80;;
7426;SDS011;3755;59.316;18.092;2024-01-15T00:20:23;0.40;;;0.40;;
7426;SDS011;3755;59.316;18.092;2024-01-15T00:22:50;1.77;;;0.50;;
7426;SDS011;3755;59.316;18.092;2024-01-15T00:25:17;0.50;;;0.50;;
7426;SDS011;3755;59.316;18.092;2024-01-15T00:27:46;2.90;;;0.70;;
7426;SDS011;3755;59.316;18.092;2024-01-15T00:30:14;0.50;;;0.50;;
7426;SDS011;3755;59.316;18.092;2024-01-15T00:32:41;0.40;;;0.40;;
7426;SDS011;3755;59.316;18.092;2024-01-15T00:35:08;0.47;;;0.47;;
7426;SDS011;3755;59.316;18.092;2024-01-15T00:37:35;0.93;;;0.50;;
7426;SDS011;3755;59.316;18.092;2024-01-15T00:40:03;0.97;;;0.57;;
7426;SDS011;3755;59.316;18.092;2024-01-15T00:42:33;2.10;;;0.60;;
7426;SDS011;3755;59.316;18.092;2024-01-15T00:45:01;0.97;;;0.60;;
7426;SDS011;3755;59.316;18.092;2024-01-15T00:47:30;0.47;;;0.47;;
7426;SDS011;3755;59.316;18.092;2024-01-15T00:49:57;0.40;;;0.40;;
7426;SDS011;3755;59.316;18.092;2024-01-15T00:52:24;0.60;;;0.50;;
7426;SDS011;3755;59.316;18.092;2024-01-15T00:54:51;3.67;;;0.70;;
7426;SDS011;3755;59.316;18.092;2024-01-15T00:57:18;1.43;;;0.90;;
7426;SDS011;3755;59.316;18.092;2024-01-15T00:59:46;3.00;;;0.60;;
7426;SDS011;3755;59.316;18.092;2024-01-15T01:02:15;0.40;;;0.40;;
7426;SDS011;3755;59.316;18.092;2024-01-15T01:04:42;0.47;;;0.47;;
7426;SDS011;3755;59.316;18.092;2024-01-15T01:07:09;0.63;;;0.60;;
7426;SDS011;3755;59.316;18.092;2024-01-15T01:09:36;0.50;;;0.50;;
7426;SDS011;3755;59.316;18.092;2024-01-15T01:12:04;0.40;;;0.40;;
7426;SDS011;3755;59.316;18.092;2024-01-15T01:14:33;2.00;;;0.67;;
7426;SDS011;3755;59.316;18.092;2024-01-15T01:17:00;1.80;;;0.60;;
7426;SDS011;3755;59.316;18.092;2024-01-15T01:19:29;0.47;;;0.47;;
7426;SDS011;3755;59.316;18.092;2024-01-15T01:21:56;3.40;;;0.90;;
7426;SDS011;3755;59.316;18.092;2024-01-15T01:24:23;0.80;;;0.70;;
7426;SDS011;3755;59.316;18.092;2024-01-15T01:26:50;0.57;;;0.57;;
7426;SDS011;3755;59.316;18.092;2024-01-15T01:29:17;2.13;;;0.70;;
7426;SDS011;3755;59.316;18.092;2024-01-15T01:31:45;4.00;;;0.60;;
7426;SDS011;3755;59.316;18.092;2024-01-15T01:34:13;0.50;;;0.50;;
7426;SDS011;3755;59.316;18.092;2024-01-15T01:36:43;3.73;;;0.53;;
7426;SDS011;3755;59.316;18.092;2024-01-15T01:39:10;0.87;;;0.50;;
7426;SDS011;3755;59.316;18.092;2024-01-15T01:41:37;0.43;;;0.43;;
7426;SDS011;3755;59.316;18.092;2024-01-15T01:44:05;1.70;;;0.77;;
7426;SDS011;3755;59.316;18.092;2024-01-15T01:46:32;0.50;;;0.50;;
7426;SDS011;3755;59.316;18.092;2024-01-15T01:49:00;1.67;;;0.63;;
7426;SDS011;3755;59.316;18.092;2024-01-15T01:51:30;1.23;;;0.57;;
7426;SDS011;3755;59.316;18.092;2024-01-15T01:53:59;3.87;;;0.60;;
7426;SDS011;3755;59.316;18.092;2024-01-15T01:56:27;1.37;;;0.57;;
7426;SDS011;3755;59.316;18.092;2024-01-15T01:58:54;0.53;;;0.53;;
7426;SDS011;3755;59.316;18.092;2024-01-15T02:01:22;1.70;;;0.60;;
7426;SDS011;3755;59.316;18.092;2024-01-15T02:03:49;2.00;;;0.77;;
7426;SDS011;3755;59.316;18.092;2024-01-15T02:06:16;0.60;;;0.60;;
7426;SDS011;3755;59.316;18.092;2024-01-15T02:08:43;2.10;;;0.70;;
7426;SDS011;3755;59.316;18.092;2024-01-15T02:11:12;1.73;;;0.70;;
7426;SDS011;3755;59.316;18.092;2024-01-15T02:13:39;1.03;;;0.70;;
7426;SDS011;3755;59.316;18.092;2024-01-15T02:16:06;1.30;;;0.50;;
7426;SDS011;3755;59.316;18.092;2024-01-15T02:18:39;1.83;;;0.50;;
7426;SDS011;3755;59.316;18.092;2024-01-15T02:21:07;1.30;;;0.60;;
7426;SDS011;3755;59.316;18.092;2024-01-15T02:23:36;4.80;;;0.60;;
7426;SDS011;3755;59.316;18.092;2024-01-15T02:26:03;0.60;;;0.60;;
7426;SDS011;3755;59.316;18.092;2024-01-15T02:28:31;2.77;;;0.80;;
7426;SDS011;3755;59.316;18.092;2024-01-15T02:31:00;1.43;;;0.63;;
7426;SDS011;3755;59.316;18.092;2024-01-15T02:33:27;2.63;;;0.80;;
7426;SDS011;3755;59.316;18.092;2024-01-15T02:35:54;2.20;;;0.60;;
7426;SDS011;3755;59.316;18.092;2024-01-15T02:38:21;1.10;;;0.60;;
7426;SDS011;3755;59.316;18.092;2024-01-15T02:40:49;1.00;;;0.50;;
7426;SDS011;3755;59.316;18.092;2024-01-15T02:43:17;0.53;;;0.53;;
7426;SDS011;3755;59.316;18.092;2024-01-15T02:45:45;4.80;;;1.20;;
7426;SDS011;3755;59.316;18.092;2024-01-15T02:48:12;1.03;;;0.80;;
7426;SDS011;3755;59.316;18.092;2024-01-15T02:50:39;1.50;;;0.67;;
7426;SDS011;3755;59.316;18.092;2024-01-15T02:53:06;1.67;;;0.80;;
7426;SDS011;3755;59.316;18.092;2024-01-15T02:55:34;1.33;;;0.80;;
7426;SDS011;3755;59.316;18.092;2024-01-15T02:58:02;0.90;;;0.50;;
7426;SDS011;3755;59.316;18.092;2024-01-15T03:00:30;0.40;;;0.40;;
7426;SDS011;3755;59.316;18.092;2024-01-15T03:02:57;1.37;;;0.50;;
7426;SDS011;3755;59.316;18.092;2024-01-15T03:05:24;1.33;;;0.80;;
7426;SDS011;3755;59.316;18.092;2024-01-15T03:07:51;2.83;;;0.73;;
7426;SDS011;3755;59.316;18.092;2024-01-15T03:10:18;0.40;;;0.40;;
7426;SDS011;3755;59.316;18.092;2024-01-15T03:12:45;1.50;;;0.60;;
7426;SDS011;3755;59.316;18.092;2024-01-15T03:15:15;0.40;;;0.40;;
7426;SDS011;3755;59.316;18.092;2024-01-15T03:17:43;1.07;;;0.70;;
7426;SDS011;3755;59.316;18.092;2024-01-15T03:20:11;0.73;;;0.53;;
7426;SDS011;3755;59.316;18.092;2024-01-15T03:22:38;2.13;;;0.87;;
7426;SDS011;3755;59.316;18.092;2024-01-15T03:25:05;3.57;;;1.20;;
7426;SDS011;3755;59.316;18.092;2024-01-15T03:27:33;2.83;;;1.00;;
7426;SDS011;3755;59.316;18.092;2024-01-15T03:30:00;0.67;;;0.67;;
7426;SDS011;3755;59.316;18.092;2024-01-15T03:32:31;4.17;;;0.70;;
7426;SDS011;3755;59.316;18.092;2024-01-15T03:34:58;0.87;;;0.80;;
7426;SDS011;3755;59.316;18.092;2024-01-15T03:37:25;1.17;;;0.60;;
7426;SDS011;3755;59.316;18.092;2024-01-15T03:39:52;3.60;;;0.80;;
7426;SDS011;3755;59.316;18.092;2024-01-15T03:42:19;2.87;;;0.93;;
7426;SDS011;3755;59.316;18.092;2024-01-15T03:44:47;4.00;;;0.80;;
7426;SDS011;3755;59.316;18.092;2024-01-15T03:47:14;1.73;;;0.53;;
7426;SDS011;3755;59.316;18.092;2024-01-15T03:49:42;0.50;;;0.50;;
7426;SDS011;3755;59.316;18.092;2024-01-15T03:52:10;2.77;;;0.80;;
7426;SDS011;3755;59.316;18.092;2024-01-15T03:54:37;0.73;;;0.70;;
7426;SDS011;3755;59.316;18.092;2024-01-15T03:57:04;1.37;;;0.57;;
7426;SDS011;3755;59.316;18.092;2024-01-15T03:59:32;4.83;;;2.30;;
7426;SDS011;3755;59.316;18.092;2024-01-15T04:01:59;2.37;;;1.20;;
7426;SDS011;3755;59.316;18.092;2024-01-15T04:04:26;1.13;;;0.70;;
7426;SDS011;3755;59.316;18.092;2024-01-15T04:06:54;0.50;;;0.50;;
7426;SDS011;3755;59.316;18.092;2024-01-15T04:09:21;0.60;;;0.60;;
7426;SDS011;3755;59.316;18.092;2024-01-15T04:11:49;0.70;;;0.50;;
7426;SDS011;3755;59.316;18.092;2024-01-15T04:14:16;1.50;;;0.80;;
7426;SDS011;3755;59.316;18.092;2024-01-15T04:16:43;0.60;;;0.60;;
7426;SDS011;3755;59.316;18.092;2024-01-15T04:19:10;1.93;;;0.73;;
7426;SDS011;3755;59.316;18.092;2024-01-15T04:21:37;0.77;;;0.60;;
7426;SDS011;3755;59.316;18.092;2024-01-15T04:24:06;1.10;;;0.90;;
7426;SDS011;3755;59.316;18.092;2024-01-15T04:26:33;0.83;;;0.70;;
7426;SDS011;3755;59.316;18.092;2024-01-15T04:29:00;0.90;;;0.90;;
7426;SDS011;3755;59.316;18.092;2024-01-15T04:31:27;3.50;;;0.90;;
7426;SDS011;3755;59.316;18.092;2024-01-15T04:33:55;0.70;;;0.70;;
7426;SDS011;3755;59.316;18.092;2024-01-15T04:36:22;2.17;;;1.10;;
7426;SDS011;3755;59.316;18.092;2024-01-15T04:38:49;3.67;;;1.20;;
7426;SDS011;3755;59.316;18.092;2024-01-15T04:41:17;0.70;;;0.70;;
7426;SDS011;3755;59.316;18.092;2024-01-15T04:43:45;0.73;;;0.73;;
7426;SDS011;3755;59.316;18.092;2024-01-15T04:46:12;3.53;;;1.10;;
7426;SDS011;3755;59.316;18.092;2024-01-15T04:48:40;0.87;;;0.80;;
7426;SDS011;3755;59.316;18.092;2024-01-15T04:51:08;0.70;;;0.70;;
7426;SDS011;3755;59.316;18.092;2024-01-15T04:53:36;2.47;;;1.23;;
7426;SDS011;3755;59.316;18.092;2024-01-15T04:56:03;1.63;;;1.00;;
7426;SDS011;3755;59.316;18.092;2024-01-15T04:58:32;1.93;;;0.80;;
7426;SDS011;3755;59.316;18.092;2024-01-15T05:00:59;1.00;;;0.90;;
7426;SDS011;3755;59.316;18.092;2024-01-15T05:03:26;1.40;;;1.10;;
7426;SDS011;3755;59.316;18.092;2024-01-15T05:05:53;1.20;;;1.10;;
7426;SDS011;3755;59.316;18.092;2024-01-15T05:08:20;1.87;;;1.20;;
7426;SDS011;3755;59.316;18.092;2024-01-15T05:10:48;1.57;;;0.73;;
7426;SDS011;3755;59.316;18.092;2024-01-15T05:13:15;2.73;;;1.30;;
7426;SDS011;3755;59.316;18.092;2024-01-15T05:15:43;0.93;;;0.90;;
7426;SDS011;3755;59.316;18.092;2024-01-15T05:18:10;2.27;;;1.20;;
7426;SDS011;3755;59.316;18.092;2024-01-15T05:20:37;2.10;;;1.23;;
7426;SDS011;3755;59.316;18.092;2024-01-15T05:23:05;1.00;;;0.90;;
7426;SDS011;3755;59.316;18.092;2024-01-15T05:25:32;1.40;;;1.30;;
7426;SDS011;3755;59.316;18.092;2024-01-15T05:27:59;2.53;;;1.33;;
7426;SDS011;3755;59.316;18.092;2024-01-15T05:30:26;2.47;;;1.30;;
7426;SDS011;3755;59.316;18.092;2024-01-15T05:32:55;4.23;;;1.67;;
7426;SDS011;3755;59.316;18.092;2024-01-15T05:35:22;4.23;;;1.60;;
7426;SDS011;3755;59.316;18.092;2024-01-15T05:37:49;2.53;;;1.73;;
7426;SDS011;3755;59.316;18.092;2024-01-15T05:40:16;4.03;;;1.13;;
7426;SDS011;3755;59.316;18.092;2024-01-15T05:42:43;2.60;;;1.20;;
7426;SDS011;3755;59.316;18.092;2024-01-15T05:45:10;1.13;;;0.93;;
7426;SDS011;3755;59.316;18.092;2024-01-15T05:47:38;2.00;;;1.30;;
7426;SDS011;3755;59.316;18.092;2024-01-15T05:50:06;3.23;;;1.27;;
7426;SDS011;3755;59.316;18.092;2024-01-15T05:52:34;2.53;;;1.10;;
7426;SDS011;3755;59.316;18.092;2024-01-15T05:55:01;2.00;;;1.20;;
7426;SDS011;3755;59.316;18.092;2024-01-15T05:57:29;5.23;;;1.60;;
7426;SDS011;3755;59.316;18.092;2024-01-15T05:59:57;2.70;;;1.47;;
7426;SDS011;3755;59.316;18.092;2024-01-15T06:02:25;1.27;;;1.17;;
7426;SDS011;3755;59.316;18.092;2024-01-15T06:04:53;3.60;;;1.57;;
7426;SDS011;3755;59.316;18.092;2024-01-15T06:07:22;1.17;;;1.07;;
7426;SDS011;3755;59.316;18.092;2024-01-15T06:09:49;1.73;;;1.50;;
7426;SDS011;3755;59.316;18.092;2024-01-15T06:12:16;3.10;;;1.67;;
7426;SDS011;3755;59.316;18.092;2024-01-15T06:14:43;1.93;;;1.40;;
7426;SDS011;3755;59.316;18.092;2024-01-15T06:17:11;1.30;;;1.10;;
7426;SDS011;3755;59.316;18.092;2024-01-15T06:19:38;2.57;;;1.50;;
7426;SDS011;3755;59.316;18.092;2024-01-15T06:22:06;1.40;;;1.07;;
7426;SDS011;3755;59.316;18.092;2024-01-15T06:24:35;2.87;;;1.20;;
7426;SDS011;3755;59.316;18.092;2024-01-15T06:27:02;3.53;;;1.70;;
7426;SDS011;3755;59.316;18.092;2024-01-15T06:29:30;1.63;;;1.30;;
7426;SDS011;3755;59.316;18.092;2024-01-15T06:31:58;3.33;;;1.77;;
7426;SDS011;3755;59.316;18.092;2024-01-15T06:34:26;2.27;;;1.60;;
7426;SDS011;3755;59.316;18.092;2024-01-15T06:36:53;3.07;;;1.93;;
7426;SDS011;3755;59.316;18.092;2024-01-15T06:39:20;4.80;;;1.80;;
7426;SDS011;3755;59.316;18.092;2024-01-15T06:41:49;2.77;;;1.80;;
7426;SDS011;3755;59.316;18.092;2024-01-15T06:44:19;3.93;;;1.60;;
7426;SDS011;3755;59.316;18.092;2024-01-15T06:46:47;4.27;;;1.63;;
7426;SDS011;3755;59.316;18.092;2024-01-15T06:49:14;2.63;;;1.50;;
7426;SDS011;3755;59.316;18.092;2024-01-15T06:51:43;4.00;;;1.87;;
7426;SDS011;3755;59.316;18.092;2024-01-15T06:54:11;3.97;;;1.97;;
7426;SDS011;3755;59.316;18.092;2024-01-15T06:56:39;2.93;;;2.10;;
7426;SDS011;3755;59.316;18.092;2024-01-15T06:59:08;3.30;;;1.83;;
7426;SDS011;3755;59.316;18.092;2024-01-15T07:01:42;4.53;;;2.23;;
7426;SDS011;3755;59.316;18.092;2024-01-15T07:04:09;3.00;;;2.20;;
7426;SDS011;3755;59.316;18.092;2024-01-15T07:06:37;3.53;;;2.17;;
7426;SDS011;3755;59.316;18.092;2024-01-15T07:09:04;3.30;;;2.47;;
7426;SDS011;3755;59.316;18.092;2024-01-15T07:11:32;3.63;;;1.43;;
7426;SDS011;3755;59.316;18.092;2024-01-15T07:14:00;2.53;;;1.80;;
7426;SDS011;3755;59.316;18.092;2024-01-15T07:16:30;2.80;;;2.00;;
7426;SDS011;3755;59.316;18.092;2024-01-15T07:18:58;4.53;;;2.40;;
7426;SDS011;3755;59.316;18.092;2024-01-15T07:21:26;5.40;;;2.23;;
7426;SDS011;3755;59.316;18.092;2024-01-15T07:23:55;2.97;;;1.77;;
7426;SDS011;3755;59.316;18.092;2024-01-15T07:26:24;4.90;;;2.30;;
7426;SDS011;3755;59.316;18.092;2024-01-15T07:28:51;4.83;;;2.33;;
7426;SDS011;3755;59.316;18.092;2024-01-15T07:31:18;2.67;;;1.60;;
7426;SDS011;3755;59.316;18.092;2024-01-15T07:33:49;3.53;;;2.00;;
7426;SDS011;3755;59.316;18.092;2024-01-15T07:36:17;1.47;;;1.37;;
7426;SDS011;3755;59.316;18.092;2024-01-15T07:38:46;2.50;;;2.00;;
7426;SDS011;3755;59.316;18.092;2024-01-15T07:41:13;2.27;;;1.63;;
7426;SDS011;3755;59.316;18.092;2024-01-15T07:43:41;2.83;;;1.77;;
7426;SDS011;3755;59.316;18.092;2024-01-15T07:46:08;2.33;;;1.83;;
7426;SDS011;3755;59.316;18.092;2024-01-15T07:48:36;2.63;;;1.20;;
7426;SDS011;3755;59.316;18.092;2024-01-15T07:51:07;2.13;;;1.30;;
7426;SDS011;3755;59.316;18.092;2024-01-15T07:53:34;1.77;;;1.10;;
7426;SDS011;3755;59.316;18.092;2024-01-15T07:56:01;7.10;;;1.13;;
7426;SDS011;3755;59.316;18.092;2024-01-15T07:58:33;4.20;;;1.33;;
7426;SDS011;3755;59.316;18.092;2024-01-15T08:01:01;2.50;;;1.23;;
7426;SDS011;3755;59.316;18.092;2024-01-15T08:03:28;1.20;;;0.90;;
7426;SDS011;3755;59.316;18.092;2024-01-15T08:05:57;1.07;;;0.87;;
7426;SDS011;3755;59.316;18.092;2024-01-15T08:08:28;1.43;;;1.00;;
7426;SDS011;3755;59.316;18.092;2024-01-15T08:11:09;2.80;;;0.70;;
7426;SDS011;3755;59.316;18.092;2024-01-15T08:13:36;1.33;;;0.90;;
7426;SDS011;3755;59.316;18.092;2024-01-15T08:16:04;0.97;;;0.80;;
7426;SDS011;3755;59.316;18.092;2024-01-15T08:18:45;1.20;;;0.63;;
7426;SDS011;3755;59.316;18.092;2024-01-15T08:21:23;2.30;;;0.90;;
7426;SDS011;3755;59.316;18.092;2024-01-15T08:23:53;2.40;;;0.90;;
7426;SDS011;3755;59.316;18.092;2024-01-15T08:26:34;3.40;;;1.43;;
7426;SDS011;3755;59.316;18.092;2024-01-15T08:29:05;0.70;;;0.70;;
7426;SDS011;3755;59.316;18.092;2024-01-15T08:31:33;0.50;;;0.50;;
7426;SDS011;3755;59.316;18.092;2024-01-15T08:34:00;0.67;;;0.67;;
7426;SDS011;3755;59.316;18.092;2024-01-15T08:36:28;0.87;;;0.60;;
7426;SDS011;3755;59.316;18.092;2024-01-15T08:38:58;7.20;;;1.67;;
7426;SDS011;3755;59.316;18.092;2024-01-15T08:41:25;1.93;;;0.80;;
7426;SDS011;3755;59.316;18.092;2024-01-15T08:43:53;1.10;;;0.67;;
7426;SDS011;3755;59.316;18.092;2024-01-15T08:46:21;0.83;;;0.60;;
7426;SDS011;3755;59.316;18.092;2024-01-15T08:48:50;0.67;;;0.50;;
7426;SDS011;3755;59.316;18.092;2024-01-15T08:51:18;0.57;;;0.57;;
7426;SDS011;3755;59.316;18.092;2024-01-15T08:53:46;2.10;;;1.07;;
7426;SDS011;3755;59.316;18.092;2024-01-15T08:56:17;0.60;;;0.60;;
7426;SDS011;3755;59.316;18.092;2024-01-15T08:58:47;0.60;;;0.60;;
7426;SDS011;3755;59.316;18.092;2024-01-15T09:01:15;2.60;;;0.73;;
7426;SDS011;3755;59.316;18.092;2024-01-15T09:03:45;1.57;;;0.60;;
7426;SDS011;3755;59.316;18.092;2024-01-15T09:06:14;2.10;;;0.80;;
7426;SDS011;3755;59.316;18.092;2024-01-15T09:08:45;0.60;;;0.60;;
7426;SDS011;3755;59.316;18.092;2024-01-15T09:11:13;1.97;;;0.70;;
7426;SDS011;3755;59.316;18.092;2024-01-15T09:13:42;4.30;;;0.93;;
7426;SDS011;3755;59.316;18.092;2024-01-15T09:16:10;0.90;;;0.70;;
7426;SDS011;3755;59.316;18.092;2024-01-15T09:18:38;1.80;;;0.63;;
7426;SDS011;3755;59.316;18.092;2024-01-15T09:21:06;0.50;;;0.40;;
7426;SDS011;3755;59.316;18.092;2024-01-15T09:23:34;1.90;;;0.70;;
7426;SDS011;3755;59.316;18.092;2024-01-15T09:26:01;2.87;;;0.90;;
7426;SDS011;3755;59.316;18.092;2024-01-15T09:28:29;3.80;;;0.60;;
7426;SDS011;3755;59.316;18.092;2024-01-15T09:31:12;2.93;;;0.70;;
7426;SDS011;3755;59.316;18.092;2024-01-15T09:33:40;3.87;;;0.80;;
7426;SDS011;3755;59.316;18.092;2024-01-15T09:36:09;0.67;;;0.60;;
7426;SDS011;3755;59.316;18.092;2024-01-15T09:38:37;1.57;;;0.73;;
7426;SDS011;3755;59.316;18.092;2024-01-15T09:41:04;0.50;;;0.50;;
7426;SDS011;3755;59.316;18.092;2024-01-15T09:43:32;1.50;;;0.60;;
7426;SDS011;3755;59.316;18.092;2024-01-15T09:45:59;3.33;;;0.67;;
7426;SDS011;3755;59.316;18.092;2024-01-15T09:48:29;2.03;;;0.70;;
7426;SDS011;3755;59.316;18.092;2024-01-15T09:50:59;2.27;;;0.80;;
7426;SDS011;3755;59.316;18.092;2024-01-15T09:53:28;2.93;;;0.60;;
7426;SDS011;3755;59.316;18.092;2024-01-15T09:55:57;1.50;;;1.20;;
7426;SDS011;3755;59.316;18.092;2024-01-15T09:58:25;4.47;;;0.93;;
7426;SDS011;3755;59.316;18.092;2024-01-15T10:00:54;4.03;;;0.67;;
7426;SDS011;3755;59.316;18.092;2024-01-15T10:03:22;2.07;;;0.80;;
7426;SDS011;3755;59.316;18.092;2024-01-15T10:05:51;0.70;;;0.50;;
7426;SDS011;3755;59.316;18.092;2024-01-15T10:08:18;2.00;;;0.70;;
7426;SDS011;3755;59.316;18.092;2024-01-15T10:10:48;1.60;;;0.70;;
7426;SDS011;3755;59.316;18.092;2024-01-15T10:13:15;2.77;;;0.70;;
7426;SDS011;3755;59.316;18.092;2024-01-15T10:15:45;1.27;;;1.17;;
7426;SDS011;3755;59.316;18.092;2024-01-15T10:18:13;4.33;;;0.60;;
7426;SDS011;3755;59.316;18.092;2024-01-15T10:20:40;3.17;;;0.90;;
7426;SDS011;3755;59.316;18.092;2024-01-15T10:23:10;3.20;;;0.57;;
7426;SDS011;3755;59.316;18.092;2024-01-15T10:25:41;1.03;;;0.70;;
7426;SDS011;3755;59.316;18.092;2024-01-15T10:28:08;1.27;;;1.00;;
7426;SDS011;3755;59.316;18.092;2024-01-15T10:30:36;0.50;;;0.50;;
7426;SDS011;3755;59.316;18.092;2024-01-15T10:33:03;3.10;;;0.70;;
7426;SDS011;3755;59.316;18.092;2024-01-15T10:35:31;1.20;;;0.60;;
7426;SDS011;3755;59.316;18.092;2024-01-15T10:38:02;0.70;;;0.63;;
7426;SDS011;3755;59.316;18.092;2024-01-15T10:40:33;2.17;;;0.70;;
7426;SDS011;3755;59.316;18.092;2024-01-15T10:43:00;1.10;;;0.57;;
7426;SDS011;3755;59.316;18.092;2024-01-15T10:45:29;0.80;;;0.80;;
7426;SDS011;3755;59.316;18.092;2024-01-15T10:47:57;1.53;;;0.70;;
7426;SDS011;3755;59.316;18.092;2024-01-15T10:50:27;1.27;;;0.70;;
7426;SDS011;3755;59.316;18.092;2024-01-15T10:52:59;1.57;;;0.80;;
7426;SDS011;3755;59.316;18.092;2024-01-15T10:55:27;0.90;;;0.60;;
7426;SDS011;3755;59.316;18.092;2024-01-15T10:57:57;1.57;;;0.60;;
7426;SDS011;3755;59.316;18.092;2024-01-15T11:00:24;1.10;;;0.60;;
7426;SDS011;3755;59.316;18.092;2024-01-15T11:02:55;0.50;;;0.50;;
7426;SDS011;3755;59.316;18.092;2024-01-15T11:05:33;1.27;;;0.60;;
7426;SDS011;3755;59.316;18.092;2024-01-15T11:08:01;0.70;;;0.60;;
7426;SDS011;3755;59.316;18.092;2024-01-15T11:10:45;0.83;;;0.60;;
7426;SDS011;3755;59.316;18.092;2024-01-15T11:13:19;1.80;;;0.53;;
7426;SDS011;3755;59.316;18.092;2024-01-15T11:16:02;0.60;;;0.50;;
7426;SDS011;3755;59.316;18.092;2024-01-15T11:18:31;1.97;;;0.40;;
7426;SDS011;3755;59.316;18.092;2024-01-15T11:23:53;0.63;;;0.60;;
7426;SDS011;3755;59.316;18.092;2024-01-15T11:26:35;3.90;;;1.00;;
7426;SDS011;3755;59.316;18.092;2024-01-15T11:29:09;0.67;;;0.63;;
7426;SDS011;3755;59.316;18.092;2024-01-15T11:32:00;1.03;;;0.67;;
7426;SDS011;3755;59.316;18.092;2024-01-15T11:34:50;1.40;;;0.60;;
7426;SDS011;3755;59.316;18.092;2024-01-15T11:37:23;0.67;;;0.50;;
7426;SDS011;3755;59.316;18.092;2024-01-15T11:39:53;2.80;;;0.60;;
7426;SDS011;3755;59.316;18.092;2024-01-15T11:42:22;3.07;;;0.80;;
7426;SDS011;3755;59.316;18.092;2024-01-15T11:44:51;0.97;;;0.90;;
7426;SDS011;3755;59.316;18.092;2024-01-15T11:47:27;0.83;;;0.70;;
7426;SDS011;3755;59.316;18.092;2024-01-15T11:50:18;2.60;;;1.40;;
7426;SDS011;3755;59.316;18.092;2024-01-15T11:52:48;3.10;;;1.60;;
7426;SDS011;3755;59.316;18.092;2024-01-15T11:55:29;1.23;;;0.70;;
7426;SDS011;3755;59.316;18.092;2024-01-15T11:58:01;0.50;;;0.50;;
7426;SDS011;3755;59.316;18.092;2024-01-15T12:00:30;1.50;;;0.80;;
7426;SDS011;3755;59.316;18.092;2024-01-15T12:02:58;2.37;;;0.73;;
7426;SDS011;3755;59.316;18.092;2024-01-15T12:05:27;4.67;;;0.80;;
7426;SDS011;3755;59.316;18.092;2024-01-15T12:07:54;1.53;;;0.67;;
7426;SDS011;3755;59.316;18.092;2024-01-15T12:10:22;4.03;;;0.87;;
7426;SDS011;3755;59.316;18.092;2024-01-15T12:12:53;0.60;;;0.60;;
7426;SDS011;3755;59.316;18.092;2024-01-15T12:15:26;0.50;;;0.50;;
7426;SDS011;3755;59.316;18.092;2024-01-15T12:17:56;1.37;;;0.60;;
7426;SDS011;3755;59.316;18.092;2024-01-15T12:20:25;1.70;;;0.70;;
7426;SDS011;3755;59.316;18.092;2024-01-15T12:22:53;4.73;;;0.90;;
7426;SDS011;3755;59.316;18.092;2024-01-15T12:25:21;0.73;;;0.60;;
7426;SDS011;3755;59.316;18.092;2024-01-15T12:27:49;2.43;;;0.80;;
7426;SDS011;3755;59.316;18.092;2024-01-15T12:30:16;5.27;;;0.80;;
7426;SDS011;3755;59.316;18.092;2024-01-15T12:32:43;1.17;;;0.50;;
7426;SDS011;3755;59.316;18.092;2024-01-15T12:35:13;3.03;;;0.60;;
7426;SDS011;3755;59.316;18.092;2024-01-15T12:37:41;0.67;;;0.60;;
7426;SDS011;3755;59.316;18.092;2024-01-15T12:40:10;1.97;;;0.80;;
7426;SDS011;3755;59.316;18.092;2024-01-15T12:42:37;1.70;;;0.50;;
7426;SDS011;3755;59.316;18.092;2024-01-15T12:45:07;0.90;;;0.70;;
7426;SDS011;3755;59.316;18.092;2024-01-15T12:47:35;0.50;;;0.50;;
7426;SDS011;3755;59.316;18.092;2024-01-15T12:50:05;3.57;;;0.80;;
7426;SDS011;3755;59.316;18.092;2024-01-15T12:52:35;2.50;;;0.77;;
7426;SDS011;3755;59.316;18.092;2024-01-15T12:55:03;1.03;;;0.53;;
7426;SDS011;3755;59.316;18.092;2024-01-15T12:57:31;0.70;;;0.60;;
7426;SDS011;3755;59.316;18.092;2024-01-15T12:59:58;5.53;;;0.83;;
7426;SDS011;3755;59.316;18.092;2024-01-15T13:02:26;5.63;;;0.83;;
7426;SDS011;3755;59.316;18.092;2024-01-15T13:04:53;1.47;;;0.90;;
7426;SDS011;3755;59.316;18.092;2024-01-15T13:07:20;0.40;;;0.40;;
7426;SDS011;3755;59.316;18.092;2024-01-15T13:09:49;2.80;;;0.70;;
7426;SDS011;3755;59.316;18.092;2024-01-15T13:12:18;1.47;;;0.57;;
7426;SDS011;3755;59.316;18.092;2024-01-15T13:14:45;3.40;;;0.93;;
7426;SDS011;3755;59.316;18.092;2024-01-15T13:17:13;4.47;;;1.23;;
7426;SDS011;3755;59.316;18.092;2024-01-15T13:19:40;1.17;;;0.80;;
7426;SDS011;3755;59.316;18.092;2024-01-15T13:22:07;1.30;;;0.90;;
7426;SDS011;3755;59.316;18.092;2024-01-15T13:24:35;1.87;;;0.70;;
7426;SDS011;3755;59.316;18.092;2024-01-15T13:27:04;2.30;;;0.67;;
7426;SDS011;3755;59.316;18.092;2024-01-15T13:29:32;1.03;;;0.57;;
7426;SDS011;3755;59.316;18.092;2024-01-15T13:31:59;2.93;;;0.70;;
7426;SDS011;3755;59.316;18.092;2024-01-15T13:34:26;1.50;;;0.67;;
7426;SDS011;3755;59.316;18.092;2024-01-15T13:36:54;0.97;;;0.60;;
7426;SDS011;3755;59.316;18.092;2024-01-15T13:39:21;1.40;;;0.90;;
7426;SDS011;3755;59.316;18.092;2024-01-15T13:41:48;1.60;;;0.70;;
7426;SDS011;3755;59.316;18.092;2024-01-15T13:44:17;3.30;;;1.03;;
7426;SDS011;3755;59.316;18.092;2024-01-15T13:46:44;1.53;;;0.73;;
7426;SDS011;3755;59.316;18.092;2024-01-15T13:49:12;0.87;;;0.60;;
7426;SDS011;3755;59.316;18.092;2024-01-15T13:51:39;0.50;;;0.50;;
7426;SDS011;3755;59.316;18.092;2024-01-15T13:54:06;1.73;;;0.80;;
7426;SDS011;3755;59.316;18.092;2024-01-15T13:56:34;1.70;;;0.60;;
7426;SDS011;3755;59.316;18.092;2024-01-15T13:59:02;2.60;;;0.63;;
7426;SDS011;3755;59.316;18.092;2024-01-15T14:01:32;2.13;;;1.00;;
7426;SDS011;3755;59.316;18.092;2024-01-15T14:04:06;7.57;;;1.30;;
7426;SDS011;3755;59.316;18.092;2024-01-15T14:06:33;2.53;;;0.70;;
7426;SDS011;3755;59.316;18.092;2024-01-15T14:09:00;1.50;;;0.90;;
7426;SDS011;3755;59.316;18.092;2024-01-15T14:11:29;1.60;;;0.70;;
7426;SDS011;3755;59.316;18.092;2024-01-15T14:13:57;1.07;;;0.63;;
7426;SDS011;3755;59.316;18.092;2024-01-15T14:16:24;2.97;;;0.80;;
7426;SDS011;3755;59.316;18.092;2024-01-15T14:18:52;1.13;;;0.70;;
7426;SDS011;3755;59.316;18.092;2024-01-15T14:21:19;1.47;;;1.00;;
7426;SDS011;3755;59.316;18.092;2024-01-15T14:23:47;2.00;;;0.70;;
7426;SDS011;3755;59.316;18.092;2024-01-15T14:26:16;3.60;;;1.00;;
7426;SDS011;3755;59.316;18.092;2024-01-15T14:28:43;0.57;;;0.57;;
7426;SDS011;3755;59.316;18.092;2024-01-15T14:31:11;1.70;;;1.10;;
7426;SDS011;3755;59.316;18.092;2024-01-15T14:34:00;2.57;;;1.30;;
7426;SDS011;3755;59.316;18.092;2024-01-15T14:36:46;3.07;;;1.03;;
7426;SDS011;3755;59.316;18.092;2024-01-15T14:39:28;1.97;;;1.00;;
7426;SDS011;3755;59.316;18.092;2024-01-15T14:42:00;3.63;;;0.70;;
7426;SDS011;3755;59.316;18.092;2024-01-15T14:44:27;1.90;;;0.83;;
7426;SDS011;3755;59.316;18.092;2024-01-15T14:46:55;2.73;;;0.60;;
7426;SDS011;3755;59.316;18.092;2024-01-15T14:49:26;1.03;;;0.57;;
7426;SDS011;3755;59.316;18.092;2024-01-15T14:51:53;2.43;;;0.90;;
7426;SDS011;3755;59.316;18.092;2024-01-15T14:54:20;1.10;;;0.57;;
7426;SDS011;3755;59.316;18.092;2024-01-15T14:56:48;0.70;;;0.70;;
7426;SDS011;3755;59.316;18.092;2024-01-15T14:59:22;1.23;;;0.83;;
7426;SDS011;3755;59.316;18.092;2024-01-15T15:01:49;3.03;;;0.93;;
7426;SDS011;3755;59.316;18.092;2024-01-15T15:04:17;1.90;;;1.07;;
7426;SDS011;3755;59.316;18.092;2024-01-15T15:06:47;0.40;;;0.40;;
7426;SDS011;3755;59.316;18.092;2024-01-15T15:09:15;4.93;;;1.53;;
7426;SDS011;3755;59.316;18.092;2024-01-15T15:11:42;1.10;;;0.80;;